Time;durP1;ratioP1;P1;durP2;ratioP2;P2;SDS_P1;SDS_P2;PMS_P1;PMS_P2;Temp;Humidity;BMP_temperature;BMP_pressure;BME280_temperature;BME280_humidity;BME280_pressure;Samples;Min_cycle;Max_cycle;Signal;HPM_P1;HPM_P2
2021/09/08 00:01:37;;;;;;;19.73;10.02;;;;;;;;;;5072508;28;20020;-88
2021/09/08 00:04:02;;;;;;;20.23;11.13;;;;;;;;;;5071117;28;20025;-87
2021/09/08 00:06:28;;;;;;;19.92;11.43;;;;;;;;;;5059210;28;20027;-87
2021/09/08 00:08:53;;;;;;;20.85;11.65;;;;;;;;;;5072677;28;20013;-87
2021/09/08 00:11:18;;;;;;;23.20;11.55;;;;;;;;;;5058231;28;20025;-88
2021/09/08 00:13:44;;;;;;;24.35;12.38;;;;;;;;;;5072208;28;20029;-87
2021/09/08 00:16:09;;;;;;;23.08;11.90;;;;;;;;;;5072099;28;20404;-87
2021/09/08 00:18:34;;;;;;;24.55;12.45;;;;;;;;;;5072297;28;20020;-87
2021/09/08 00:20:59;;;;;;;25.23;12.60;;;;;;;;;;5071939;28;20504;-87
2021/09/08 00:23:25;;;;;;;23.55;11.38;;;;;;;;;;5073368;28;20020;-87
2021/09/08 00:25:50;;;;;;;23.92;12.13;;;;;;;;;;5060208;28;20036;-88
2021/09/08 00:28:15;;;;;;;21.38;10.98;;;;;;;;;;5058899;28;20031;-87
2021/09/08 00:30:40;;;;;;;27.95;13.07;;;;;;;;;;5065653;28;20017;-88
2021/09/08 00:33:06;;;;;;;28.77;13.20;;;;;;;;;;5071578;28;20024;-87
2021/09/08 00:35:31;;;;;;;25.80;12.93;;;;;;;;;;5051033;28;20052;-88
2021/09/08 00:37:56;;;;;;;23.83;12.10;;;;;;;;;;5085352;28;20020;-86
2021/09/08 00:40:22;;;;;;;26.98;12.80;;;;;;;;;;5053193;28;20468;-88
2021/09/08 00:42:47;;;;;;;26.33;12.02;;;;;;;;;;5051948;28;20063;-87
2021/09/08 00:45:13;;;;;;;22.00;11.25;;;;;;;;;;5085356;28;20021;-88
2021/09/08 00:47:38;;;;;;;21.77;12.00;;;;;;;;;;5051793;28;20108;-87
2021/09/08 00:50:04;;;;;;;24.10;12.48;;;;;;;;;;5085459;28;20025;-87
2021/09/08 00:52:29;;;;;;;21.98;11.82;;;;;;;;;;5051630;28;20028;-88
2021/09/08 00:54:55;;;;;;;22.08;11.90;;;;;;;;;;5051006;28;20424;-87
2021/09/08 00:57:21;;;;;;;22.00;11.68;;;;;;;;;;5083516;28;20455;-87
2021/09/08 00:59:47;;;;;;;21.40;10.95;;;;;;;;;;5051102;28;20021;-87
2021/09/08 01:02:12;;;;;;;22.52;10.40;;;;;;;;;;5085280;28;20066;-88
2021/09/08 01:04:38;;;;;;;19.95;10.57;;;;;;;;;;5051729;28;20078;-87
2021/09/08 01:07:04;;;;;;;21.30;10.60;;;;;;;;;;5053396;28;20021;-87
2021/09/08 01:09:29;;;;;;;21.08;10.88;;;;;;;;;;5085072;28;20009;-87
2021/09/08 01:11:55;;;;;;;21.88;11.88;;;;;;;;;;5085303;28;20383;-88
2021/09/08 01:14:20;;;;;;;25.33;11.02;;;;;;;;;;5084978;28;20025;-87
2021/09/08 01:16:49;;;;;;;22.40;11.68;;;;;;;;;;5085053;28;20020;-87
2021/09/08 01:19:14;;;;;;;25.15;11.20;;;;;;;;;;5085150;28;20029;-88
2021/09/08 01:21:40;;;;;;;24.48;12.15;;;;;;;;;;5083924;28;20029;-87
2021/09/08 01:24:06;;;;;;;23.33;12.23;;;;;;;;;;5051375;28;20017;-87
2021/09/08 01:26:31;;;;;;;24.05;11.93;;;;;;;;;;5084854;28;20477;-88
2021/09/08 01:28:56;;;;;;;23.88;11.77;;;;;;;;;;5085072;28;20036;-88
2021/09/08 01:31:21;;;;;;;24.35;12.90;;;;;;;;;;5085189;28;20493;-87
2021/09/08 01:33:46;;;;;;;25.05;11.45;;;;;;;;;;5085105;28;20017;-88
2021/09/08 01:36:12;;;;;;;25.83;11.73;;;;;;;;;;5051364;28;20028;-87
2021/09/08 01:38:37;;;;;;;24.75;11.95;;;;;;;;;;5084855;28;20020;-88
2021/09/08 01:41:02;;;;;;;21.92;12.00;;;;;;;;;;5084968;28;20036;-87
2021/09/08 01:43:27;;;;;;;23.35;11.57;;;;;;;;;;5084915;28;20013;-87
2021/09/08 01:45:52;;;;;;;20.13;11.68;;;;;;;;;;5051029;28;20013;-88
2021/09/08 01:48:18;;;;;;;23.15;11.57;;;;;;;;;;5052196;28;20024;-88
2021/09/08 01:50:43;;;;;;;21.70;11.18;;;;;;;;;;5052271;28;20487;-87
2021/09/08 01:53:08;;;;;;;25.02;12.00;;;;;;;;;;5051859;28;20028;-87
2021/09/08 01:55:34;;;;;;;21.27;11.73;;;;;;;;;;5050984;28;20468;-87
2021/09/08 01:57:59;;;;;;;24.10;12.10;;;;;;;;;;5052436;28;20024;-87
2021/09/08 02:00:26;;;;;;;21.95;11.60;;;;;;;;;;5084431;28;20029;-87
2021/09/08 02:02:51;;;;;;;22.25;11.55;;;;;;;;;;5084578;28;20112;-88
2021/09/08 02:05:16;;;;;;;29.15;13.38;;;;;;;;;;5052502;28;20049;-86
2021/09/08 02:07:42;;;;;;;24.52;12.32;;;;;;;;;;5087380;28;20074;-87
2021/09/08 02:10:07;;;;;;;28.10;12.07;;;;;;;;;;5056303;28;20467;-88
2021/09/08 02:12:33;;;;;;;25.77;12.65;;;;;;;;;;5056071;28;20013;-87
2021/09/08 02:14:58;;;;;;;23.40;13.13;;;;;;;;;;5054870;28;20098;-87
2021/09/08 02:17:23;;;;;;;27.95;12.80;;;;;;;;;;5055399;28;20465;-88
2021/09/08 02:19:48;;;;;;;26.42;12.90;;;;;;;;;;5055503;28;20106;-87
2021/09/08 02:22:13;;;;;;;26.42;12.50;;;;;;;;;;5088409;28;20384;-88
2021/09/08 02:24:39;;;;;;;21.75;11.32;;;;;;;;;;5055751;28;20027;-87
2021/09/08 02:27:04;;;;;;;24.17;11.43;;;;;;;;;;5055789;28;20099;-87
2021/09/08 02:29:29;;;;;;;22.75;10.48;;;;;;;;;;5087906;28;20009;-87
2021/09/08 02:31:54;;;;;;;23.77;11.13;;;;;;;;;;5055680;28;20100;-88
2021/09/08 02:34:20;;;;;;;43.58;11.00;;;;;;;;;;5054415;28;20028;-88
2021/09/08 02:36:45;;;;;;;23.17;12.00;;;;;;;;;;5087467;28;20036;-87
2021/09/08 02:39:10;;;;;;;22.02;11.15;;;;;;;;;;5087875;28;20051;-88
2021/09/08 02:41:36;;;;;;;21.33;11.25;;;;;;;;;;5087605;28;20492;-88
2021/09/08 02:44:01;;;;;;;20.40;10.50;;;;;;;;;;5055331;28;20051;-88
2021/09/08 02:46:26;;;;;;;19.77;9.90;;;;;;;;;;5055003;28;20013;-88
2021/09/08 02:48:52;;;;;;;20.35;10.35;;;;;;;;;;5053835;28;20053;-88
2021/09/08 02:51:17;;;;;;;20.52;10.57;;;;;;;;;;5087728;28;20104;-87
2021/09/08 02:53:42;;;;;;;23.48;11.48;;;;;;;;;;5054050;28;20013;-86
2021/09/08 02:56:07;;;;;;;25.35;10.70;;;;;;;;;;5087765;28;20383;-88
2021/09/08 02:58:33;;;;;;;23.80;11.20;;;;;;;;;;5055177;28;20439;-88
2021/09/08 03:00:58;;;;;;;18.40;10.38;;;;;;;;;;5086837;28;20017;-87
2021/09/08 03:03:23;;;;;;;21.90;11.18;;;;;;;;;;5053972;28;20025;-88
2021/09/08 03:05:49;;;;;;;23.20;11.60;;;;;;;;;;5053643;28;20067;-87
2021/09/08 03:08:14;;;;;;;24.38;11.68;;;;;;;;;;5055175;28;20025;-87
2021/09/08 03:10:41;;;;;;;25.98;11.40;;;;;;;;;;5053571;28;20472;-87
2021/09/08 03:13:06;;;;;;;23.23;11.20;;;;;;;;;;5086475;28;20029;-87
2021/09/08 03:15:31;;;;;;;22.75;11.85;;;;;;;;;;5087146;28;20434;-88
2021/09/08 03:17:57;;;;;;;25.23;11.32;;;;;;;;;;5052879;28;20024;-87
2021/09/08 03:20:22;;;;;;;25.58;12.15;;;;;;;;;;5087171;28;20021;-88
2021/09/08 03:22:47;;;;;;;23.15;11.70;;;;;;;;;;5053326;28;20017;-87
2021/09/08 03:25:12;;;;;;;23.20;11.25;;;;;;;;;;5087155;28;20099;-88
2021/09/08 03:27:40;;;;;;;22.85;11.63;;;;;;;;;;5053622;28;20447;-88
2021/09/08 03:30:05;;;;;;;24.63;12.35;;;;;;;;;;5086662;28;20358;-88
2021/09/08 03:32:31;;;;;;;29.90;11.57;;;;;;;;;;5086852;28;20036;-88
2021/09/08 03:34:56;;;;;;;27.70;12.30;;;;;;;;;;5053185;28;20130;-88
2021/09/08 03:37:21;;;;;;;23.38;12.07;;;;;;;;;;5054152;28;20480;-88
2021/09/08 03:39:46;;;;;;;20.73;10.88;;;;;;;;;;5086478;28;20021;-87
2021/09/08 03:42:11;;;;;;;20.60;11.57;;;;;;;;;;5052797;28;20119;-88
2021/09/08 03:44:37;;;;;;;23.63;11.50;;;;;;;;;;5054311;28;20020;-88
2021/09/08 03:47:02;;;;;;;20.92;11.07;;;;;;;;;;5086453;28;20150;-88
2021/09/08 03:49:28;;;;;;;26.48;12.88;;;;;;;;;;5054161;28;20086;-87
2021/09/08 03:51:54;;;;;;;29.42;13.00;;;;;;;;;;5086437;28;20036;-87
2021/09/08 03:54:19;;;;;;;24.55;12.50;;;;;;;;;;5052793;28;20025;-87
2021/09/08 03:56:45;;;;;;;23.10;13.00;;;;;;;;;;5086573;28;20025;-88
2021/09/08 03:59:10;;;;;;;24.95;11.48;;;;;;;;;;5086387;28;20500;-88
2021/09/08 04:01:35;;;;;;;25.13;11.75;;;;;;;;;;5086054;28;20029;-87
2021/09/08 04:04:00;;;;;;;25.08;12.20;;;;;;;;;;5053779;28;20051;-86
2021/09/08 04:06:25;;;;;;;25.58;12.20;;;;;;;;;;5053644;28;20453;-87
2021/09/08 04:08:51;;;;;;;24.33;11.30;;;;;;;;;;5052187;28;20021;-88
2021/09/08 04:11:16;;;;;;;23.25;10.85;;;;;;;;;;5052197;28;20032;-87
2021/09/08 04:13:41;;;;;;;22.02;11.43;;;;;;;;;;5086038;28;20032;-88
2021/09/08 04:16:06;;;;;;;23.10;11.80;;;;;;;;;;5085652;28;20029;-86
2021/09/08 04:18:31;;;;;;;31.25;12.13;;;;;;;;;;5086136;28;20021;-88
2021/09/08 04:20:57;;;;;;;21.67;10.95;;;;;;;;;;5085671;28;20025;-87
2021/09/08 04:23:22;;;;;;;27.65;11.77;;;;;;;;;;5053436;28;20119;-88
2021/09/08 04:25:47;;;;;;;25.67;11.35;;;;;;;;;;5085925;28;20465;-88
2021/09/08 04:28:12;;;;;;;24.05;11.98;;;;;;;;;;5085833;28;20024;-88
2021/09/08 04:30:37;;;;;;;20.70;11.65;;;;;;;;;;5050955;28;20024;-88
2021/09/08 04:33:03;;;;;;;24.67;12.18;;;;;;;;;;5085665;28;20024;-88
2021/09/08 04:35:28;;;;;;;25.55;12.15;;;;;;;;;;5085662;28;20484;-88
2021/09/08 04:37:53;;;;;;;24.50;12.00;;;;;;;;;;5053239;28;20396;-87
2021/09/08 04:40:18;;;;;;;25.40;12.38;;;;;;;;;;5050993;28;20025;-88
2021/09/08 04:42:43;;;;;;;28.50;11.68;;;;;;;;;;5051883;28;20021;-88
2021/09/08 04:45:09;;;;;;;23.40;11.70;;;;;;;;;;5052916;28;20036;-87
2021/09/08 04:47:34;;;;;;;23.48;10.80;;;;;;;;;;5053058;28;20126;-88
2021/09/08 04:50:00;;;;;;;22.40;10.95;;;;;;;;;;5051811;28;20045;-87
2021/09/08 04:52:25;;;;;;;20.13;11.45;;;;;;;;;;5085389;28;20549;-88
2021/09/08 04:54:50;;;;;;;23.88;11.32;;;;;;;;;;5085460;28;20029;-88
2021/09/08 04:57:15;;;;;;;24.17;11.85;;;;;;;;;;5085443;28;20064;-88
2021/09/08 04:59:40;;;;;;;24.38;11.85;;;;;;;;;;5085222;28;20464;-88
2021/09/08 05:02:06;;;;;;;25.98;11.68;;;;;;;;;;5052432;28;20079;-88
2021/09/08 05:04:31;;;;;;;26.05;12.02;;;;;;;;;;5052811;28;20024;-87
2021/09/08 05:06:56;;;;;;;24.13;12.35;;;;;;;;;;5085218;28;20021;-87
2021/09/08 05:09:21;;;;;;;27.38;13.40;;;;;;;;;;5053021;28;20395;-87
2021/09/08 05:11:47;;;;;;;26.48;13.57;;;;;;;;;;5052715;28;20017;-87
2021/09/08 05:14:12;;;;;;;29.05;13.27;;;;;;;;;;5085284;28;20491;-87
2021/09/08 05:16:37;;;;;;;32.17;13.88;;;;;;;;;;5084896;28;20070;-88
2021/09/08 05:19:03;;;;;;;28.27;13.02;;;;;;;;;;5085040;28;20032;-88
2021/09/08 05:21:28;;;;;;;25.30;12.63;;;;;;;;;;5051453;28;20377;-88
2021/09/08 05:23:54;;;;;;;24.13;11.60;;;;;;;;;;5085128;28;20047;-88
2021/09/08 05:26:19;;;;;;;17.98;9.82;;;;;;;;;;5051421;28;20100;-88
2021/09/08 05:28:44;;;;;;;24.00;10.45;;;;;;;;;;5051285;28;20017;-87
2021/09/08 05:31:09;;;;;;;22.20;11.30;;;;;;;;;;5084058;28;20021;-88
2021/09/08 05:33:35;;;;;;;26.35;11.80;;;;;;;;;;5051426;28;20040;-88
2021/09/08 05:36:00;;;;;;;24.35;11.55;;;;;;;;;;5051433;28;20036;-88
2021/09/08 05:38:25;;;;;;;25.27;11.57;;;;;;;;;;5084887;28;20045;-88
2021/09/08 05:40:51;;;;;;;30.08;11.45;;;;;;;;;;5085085;28;20064;-87
2021/09/08 05:43:16;;;;;;;21.63;11.40;;;;;;;;;;5089158;28;20103;-87
2021/09/08 05:45:43;;;;;;;20.30;10.85;;;;;;;;;;5088810;28;20045;-87
2021/09/08 05:48:08;;;;;;;23.70;11.55;;;;;;;;;;5088592;28;20067;-88
2021/09/08 05:50:33;;;;;;;24.50;11.50;;;;;;;;;;5088836;28;20033;-88
2021/09/08 05:53:02;;;;;;;23.02;10.65;;;;;;;;;;5056642;28;20078;-87
2021/09/08 05:55:28;;;;;;;20.00;9.77;;;;;;;;;;5054500;28;20112;-87
2021/09/08 05:57:53;;;;;;;25.20;11.18;;;;;;;;;;5055242;28;20055;-87
2021/09/08 06:00:18;;;;;;;24.85;12.50;;;;;;;;;;5088227;28;20032;-88
2021/09/08 06:02:43;;;;;;;27.73;13.20;;;;;;;;;;5054830;28;20020;-88
2021/09/08 06:05:09;;;;;;;24.80;12.52;;;;;;;;;;5056429;28;20027;-87
2021/09/08 06:07:34;;;;;;;26.95;13.48;;;;;;;;;;5056154;28;20469;-88
2021/09/08 06:09:59;;;;;;;33.13;14.45;;;;;;;;;;5055008;28;20017;-88
2021/09/08 06:12:24;;;;;;;31.52;15.18;;;;;;;;;;5085894;28;20116;-88
2021/09/08 06:14:50;;;;;;;34.33;15.50;;;;;;;;;;5088268;28;20078;-87
2021/09/08 06:17:15;;;;;;;35.88;16.77;;;;;;;;;;5088386;28;20095;-88
2021/09/08 06:19:40;;;;;;;36.22;17.08;;;;;;;;;;5086940;28;20028;-88
2021/09/08 06:22:05;;;;;;;36.80;17.95;;;;;;;;;;5088248;28;20017;-87
2021/09/08 06:24:30;;;;;;;35.28;17.30;;;;;;;;;;5054489;28;20049;-87
2021/09/08 06:26:56;;;;;;;40.83;17.65;;;;;;;;;;5087046;28;20048;-87
2021/09/08 06:29:21;;;;;;;34.47;16.63;;;;;;;;;;5054629;28;20013;-87
2021/09/08 06:31:46;;;;;;;38.40;16.70;;;;;;;;;;5087961;28;20017;-87
2021/09/08 06:34:11;;;;;;;36.88;17.77;;;;;;;;;;5055684;28;20078;-88
2021/09/08 06:36:37;;;;;;;41.92;19.02;;;;;;;;;;5054124;28;20391;-88
2021/09/08 06:39:02;;;;;;;36.20;17.60;;;;;;;;;;5055606;28;20050;-88
2021/09/08 06:41:27;;;;;;;36.65;18.00;;;;;;;;;;5087693;28;20044;-88
2021/09/08 06:43:53;;;;;;;36.42;17.42;;;;;;;;;;5087851;28;20415;-88
2021/09/08 06:46:19;;;;;;;42.03;17.02;;;;;;;;;;5087672;28;20021;-88
2021/09/08 06:48:44;;;;;;;35.58;15.55;;;;;;;;;;5053640;28;20048;-88
2021/09/08 06:51:09;;;;;;;34.28;16.08;;;;;;;;;;5054192;28;20384;-88
2021/09/08 06:53:34;;;;;;;39.90;18.08;;;;;;;;;;5086505;28;20045;-88
2021/09/08 06:56:01;;;;;;;36.30;16.13;;;;;;;;;;5055193;28;20099;-87
2021/09/08 06:58:26;;;;;;;33.88;14.98;;;;;;;;;;5087807;28;20552;-88
2021/09/08 07:00:51;;;;;;;30.48;15.55;;;;;;;;;;5053661;28;20021;-88
2021/09/08 07:03:16;;;;;;;33.33;15.43;;;;;;;;;;5055137;28;20087;-88
2021/09/08 07:05:42;;;;;;;26.15;14.02;;;;;;;;;;5053852;28;20049;-88
2021/09/08 07:08:09;;;;;;;30.95;14.13;;;;;;;;;;5087677;28;20576;-88
2021/09/08 07:10:34;;;;;;;31.52;14.27;;;;;;;;;;5087136;28;20052;-89
2021/09/08 07:13:00;;;;;;;28.85;12.95;;;;;;;;;;5053337;28;20029;-88
2021/09/08 07:15:25;;;;;;;32.30;14.38;;;;;;;;;;5054842;28;20021;-88
2021/09/08 07:17:50;;;;;;;29.50;12.98;;;;;;;;;;5086836;28;20021;-87
2021/09/08 07:20:15;;;;;;;28.38;13.43;;;;;;;;;;5053959;28;20025;-88
2021/09/08 07:22:40;;;;;;;36.00;14.52;;;;;;;;;;5054475;28;20453;-88
2021/09/08 07:25:06;;;;;;;28.17;13.20;;;;;;;;;;5086955;28;20020;-88
2021/09/08 07:27:31;;;;;;;26.42;13.00;;;;;;;;;;5087061;28;20108;-88
2021/09/08 07:29:56;;;;;;;30.58;12.90;;;;;;;;;;5086222;28;20009;-88
2021/09/08 07:32:22;;;;;;;25.20;12.77;;;;;;;;;;5053376;28;20029;-88
2021/09/08 07:34:47;;;;;;;26.60;11.85;;;;;;;;;;5054467;28;20475;-88
2021/09/08 07:37:12;;;;;;;24.52;11.95;;;;;;;;;;5054348;28;20016;-88
2021/09/08 07:39:37;;;;;;;25.65;11.57;;;;;;;;;;5086312;28;20451;-88
2021/09/08 07:42:03;;;;;;;20.98;10.98;;;;;;;;;;5054200;28;20441;-87
2021/09/08 07:44:28;;;;;;;21.45;11.45;;;;;;;;;;5054527;28;20021;-88
2021/09/08 07:46:53;;;;;;;28.92;12.15;;;;;;;;;;5086168;28;20016;-89
2021/09/08 07:49:19;;;;;;;29.50;11.32;;;;;;;;;;5053365;28;20067;-88
2021/09/08 07:51:44;;;;;;;22.08;10.93;;;;;;;;;;5053724;28;20051;-88
2021/09/08 07:54:09;;;;;;;22.52;10.80;;;;;;;;;;5052726;28;20025;-87
2021/09/08 07:56:35;;;;;;;25.08;10.45;;;;;;;;;;5086543;28;20029;-88
2021/09/08 07:59:00;;;;;;;19.67;10.43;;;;;;;;;;5052573;28;20029;-88
2021/09/08 08:01:25;;;;;;;26.73;10.68;;;;;;;;;;5086582;28;20021;-88
2021/09/08 08:03:51;;;;;;;24.73;10.38;;;;;;;;;;5086096;28;20521;-87
2021/09/08 08:06:16;;;;;;;18.15;9.55;;;;;;;;;;5053887;28;20017;-88
2021/09/08 08:08:41;;;;;;;24.38;9.60;;;;;;;;;;5052617;28;20021;-88
2021/09/08 08:11:06;;;;;;;20.17;9.93;;;;;;;;;;5053507;28;20382;-88
2021/09/08 08:13:32;;;;;;;29.70;9.80;;;;;;;;;;5053151;28;20116;-88
2021/09/08 08:15:57;;;;;;;26.25;10.35;;;;;;;;;;5052245;28;20025;-87
2021/09/08 08:18:22;;;;;;;23.10;9.52;;;;;;;;;;5085870;28;20024;-88
2021/09/08 08:20:47;;;;;;;20.50;9.35;;;;;;;;;;5052021;28;20025;-88
2021/09/08 08:23:12;;;;;;;19.27;8.60;;;;;;;;;;5053236;28;20040;-88
2021/09/08 08:25:38;;;;;;;23.13;8.70;;;;;;;;;;5052207;28;20025;-88
2021/09/08 08:28:04;;;;;;;17.75;8.80;;;;;;;;;;5052113;28;20012;-87
2021/09/08 08:30:30;;;;;;;15.73;8.23;;;;;;;;;;5052054;28;20020;-88
2021/09/08 08:32:55;;;;;;;16.33;8.05;;;;;;;;;;5052002;28;20070;-87
2021/09/08 08:35:21;;;;;;;17.95;8.05;;;;;;;;;;5052149;28;20086;-88
2021/09/08 08:37:48;;;;;;;16.70;8.20;;;;;;;;;;5052048;28;20127;-88
2021/09/08 08:40:14;;;;;;;18.38;8.65;;;;;;;;;;5053221;28;20017;-87
2021/09/08 08:42:39;;;;;;;16.33;7.75;;;;;;;;;;5053246;28;20017;-88
2021/09/08 08:45:05;;;;;;;17.98;8.35;;;;;;;;;;5053242;28;20016;-88
2021/09/08 08:47:31;;;;;;;18.98;7.85;;;;;;;;;;5053006;28;20404;-88
2021/09/08 08:49:57;;;;;;;19.60;7.75;;;;;;;;;;5051274;28;20480;-87
2021/09/08 08:52:22;;;;;;;16.52;8.07;;;;;;;;;;5051982;28;20033;-88
2021/09/08 08:54:48;;;;;;;18.58;8.32;;;;;;;;;;5051952;28;20017;-88
2021/09/08 08:57:14;;;;;;;20.02;8.27;;;;;;;;;;5051995;28;20187;-88
2021/09/08 08:59:40;;;;;;;14.88;8.27;;;;;;;;;;5051677;28;20043;-88
2021/09/08 09:02:22;;;;;;;16.90;7.68;;;;;;;;;;5051444;28;20033;-88
2021/09/08 09:04:48;;;;;;;13.27;7.78;;;;;;;;;;5053096;28;20495;-88
2021/09/08 09:07:34;;;;;;;18.40;7.97;;;;;;;;;;5051786;28;20017;-88
2021/09/08 09:10:03;;;;;;;13.65;7.90;;;;;;;;;;5051875;28;20358;-88
2021/09/08 09:12:30;;;;;;;22.25;8.60;;;;;;;;;;5051537;28;20025;-87
2021/09/08 09:14:58;;;;;;;14.43;7.30;;;;;;;;;;5051196;28;20012;-88
2021/09/08 09:17:25;;;;;;;14.25;7.68;;;;;;;;;;5050820;28;20116;-87
2021/09/08 09:19:50;;;;;;;14.07;7.55;;;;;;;;;;5051099;28;20028;-88
2021/09/08 09:22:17;;;;;;;14.77;8.07;;;;;;;;;;5051594;28;20107;-88
2021/09/08 09:24:42;;;;;;;16.48;7.28;;;;;;;;;;5052768;28;20013;-88
2021/09/08 09:27:11;;;;;;;17.95;8.00;;;;;;;;;;5051510;28;20071;-87
2021/09/08 09:29:41;;;;;;;18.67;7.85;;;;;;;;;;5051302;28;20464;-88
2021/09/08 09:32:07;;;;;;;12.52;7.07;;;;;;;;;;5051453;28;20066;-88
2021/09/08 09:34:33;;;;;;;13.18;7.50;;;;;;;;;;5051208;28;20033;-87
2021/09/08 09:36:59;;;;;;;16.13;8.20;;;;;;;;;;5051287;28;20112;-87
2021/09/08 09:39:27;;;;;;;14.00;8.02;;;;;;;;;;5051310;28;20024;-87
2021/09/08 09:41:53;;;;;;;14.77;7.63;;;;;;;;;;5050976;28;20024;-88
2021/09/08 09:44:18;;;;;;;15.80;8.43;;;;;;;;;;5050992;28;20035;-88
2021/09/08 09:46:45;;;;;;;17.85;7.60;;;;;;;;;;5051495;28;20115;-88
2021/09/08 09:49:11;;;;;;;14.65;7.68;;;;;;;;;;5051844;28;20476;-87
2021/09/08 09:51:37;;;;;;;17.75;7.93;;;;;;;;;;5052579;28;20021;-88
2021/09/08 09:54:02;;;;;;;17.02;7.70;;;;;;;;;;5052402;28;20075;-88
2021/09/08 09:56:27;;;;;;;19.70;8.18;;;;;;;;;;5051096;28;20108;-87
2021/09/08 09:58:52;;;;;;;20.15;8.05;;;;;;;;;;5050792;28;20025;-88
2021/09/08 10:01:19;;;;;;;19.27;7.55;;;;;;;;;;5051009;28;20017;-88
2021/09/08 10:03:44;;;;;;;15.95;7.38;;;;;;;;;;5050651;28;20013;-88
2021/09/08 10:06:10;;;;;;;15.93;7.82;;;;;;;;;;5051106;28;20484;-87
2021/09/08 10:08:38;;;;;;;15.15;7.72;;;;;;;;;;5051230;28;20489;-87
2021/09/08 10:11:08;;;;;;;12.40;7.18;;;;;;;;;;5051859;28;20726;-88
2021/09/08 10:13:39;;;;;;;15.02;8.38;;;;;;;;;;5051062;28;20021;-87
2021/09/08 10:16:05;;;;;;;15.47;7.60;;;;;;;;;;5050689;28;20025;-88
2021/09/08 10:18:33;;;;;;;13.98;6.85;;;;;;;;;;5050304;28;20029;-87
2021/09/08 10:20:59;;;;;;;17.15;7.53;;;;;;;;;;5050646;28;20022;-88
2021/09/08 10:23:24;;;;;;;13.63;7.40;;;;;;;;;;5050997;28;20151;-88
2021/09/08 10:25:51;;;;;;;17.42;7.68;;;;;;;;;;5050898;28;20426;-88
2021/09/08 10:28:17;;;;;;;14.65;7.30;;;;;;;;;;5052806;28;20009;-88
2021/09/08 10:30:43;;;;;;;15.30;7.50;;;;;;;;;;5054589;28;20021;-88
2021/09/08 10:33:08;;;;;;;12.07;6.90;;;;;;;;;;5054406;28;20476;-88
2021/09/08 10:35:38;;;;;;;14.48;7.05;;;;;;;;;;5054332;28;20023;-87
2021/09/08 10:38:08;;;;;;;16.02;7.43;;;;;;;;;;5054306;28;20476;-88
2021/09/08 10:40:34;;;;;;;16.65;7.55;;;;;;;;;;5054111;28;20028;-88
2021/09/08 10:43:01;;;;;;;17.33;7.30;;;;;;;;;;5054384;28;20028;-88
2021/09/08 10:45:27;;;;;;;14.25;7.18;;;;;;;;;;5054079;28;20472;-87
2021/09/08 10:47:53;;;;;;;13.57;7.43;;;;;;;;;;5055431;28;20017;-88
2021/09/08 10:50:39;;;;;;;14.65;7.43;;;;;;;;;;5055161;28;20052;-87
2021/09/08 10:53:31;;;;;;;16.13;7.55;;;;;;;;;;5053726;28;20025;-87
2021/09/08 10:55:56;;;;;;;15.55;7.45;;;;;;;;;;5052509;28;20400;-87
2021/09/08 10:58:21;;;;;;;16.48;8.30;;;;;;;;;;5054047;28;20040;-87
2021/09/08 11:00:48;;;;;;;19.20;7.82;;;;;;;;;;5053158;28;20078;-88
2021/09/08 11:03:14;;;;;;;16.45;7.03;;;;;;;;;;5053557;28;20100;-88
2021/09/08 11:06:05;;;;;;;14.98;7.05;;;;;;;;;;5053783;28;20048;-87
2021/09/08 11:08:32;;;;;;;16.45;7.95;;;;;;;;;;5052703;28;20036;-87
2021/09/08 11:11:15;;;;;;;16.85;7.40;;;;;;;;;;5053379;28;20078;-87
2021/09/08 11:13:41;;;;;;;14.80;7.40;;;;;;;;;;5054085;28;20025;-88
2021/09/08 11:16:20;;;;;;;12.73;6.93;;;;;;;;;;5053210;28;20028;-88
2021/09/08 11:18:45;;;;;;;11.90;6.80;;;;;;;;;;5054926;28;20025;-88
2021/09/08 11:21:11;;;;;;;14.85;7.60;;;;;;;;;;5053413;28;20543;-87
2021/09/08 11:23:36;;;;;;;15.15;7.15;;;;;;;;;;5053637;28;20100;-88
2021/09/08 11:26:06;;;;;;;12.13;6.72;;;;;;;;;;5053319;28;20028;-87
2021/09/08 11:28:31;;;;;;;15.15;6.65;;;;;;;;;;5053270;28;20159;-88
2021/09/08 11:30:57;;;;;;;11.65;6.25;;;;;;;;;;5053179;28;20047;-88
2021/09/08 11:33:22;;;;;;;12.40;6.43;;;;;;;;;;5053382;28;20760;-88
2021/09/08 11:35:49;;;;;;;12.73;6.47;;;;;;;;;;5054829;28;20403;-89
2021/09/08 11:38:14;;;;;;;11.15;6.30;;;;;;;;;;5052946;28;20110;-88
2021/09/08 11:40:40;;;;;;;12.20;6.80;;;;;;;;;;5051858;28;20044;-88
2021/09/08 11:43:05;;;;;;;14.65;6.63;;;;;;;;;;5053002;28;20516;-88
2021/09/08 11:45:31;;;;;;;13.10;6.70;;;;;;;;;;5053949;28;20044;-88
2021/09/08 11:47:56;;;;;;;11.65;5.75;;;;;;;;;;5054158;28;20044;-88
2021/09/08 11:50:22;;;;;;;13.27;5.63;;;;;;;;;;5052696;28;20107;-88
2021/09/08 11:52:54;;;;;;;13.35;6.93;;;;;;;;;;5052764;28;20021;-88
2021/09/08 11:55:27;;;;;;;10.50;5.82;;;;;;;;;;5052691;28;20025;-88
2021/09/08 11:57:52;;;;;;;13.48;6.60;;;;;;;;;;5039303;28;20075;-88
2021/09/08 12:00:17;;;;;;;10.52;6.32;;;;;;;;;;5053585;28;20021;-88
2021/09/08 12:02:43;;;;;;;12.35;5.93;;;;;;;;;;5054048;28;20017;-88
2021/09/08 12:05:17;;;;;;;16.05;6.13;;;;;;;;;;5052676;28;20100;-88
2021/09/08 12:07:43;;;;;;;13.20;6.63;;;;;;;;;;5052585;28;20028;-88
2021/09/08 12:10:09;;;;;;;11.75;6.20;;;;;;;;;;5052005;28;20040;-88
2021/09/08 12:12:34;;;;;;;12.93;6.43;;;;;;;;;;5052489;28;20028;-88
2021/09/08 12:14:59;;;;;;;20.33;6.60;;;;;;;;;;5053985;28;20016;-88
2021/09/08 12:17:25;;;;;;;11.38;6.35;;;;;;;;;;5052120;28;20032;-88
2021/09/08 12:19:51;;;;;;;11.15;6.15;;;;;;;;;;5052499;28;20106;-88
2021/09/08 12:22:30;;;;;;;13.65;6.45;;;;;;;;;;5053747;28;20499;-88
2021/09/08 12:24:57;;;;;;;9.63;6.20;;;;;;;;;;5053369;28;20009;-88
2021/09/08 12:27:25;;;;;;;15.40;6.55;;;;;;;;;;5052627;28;20381;-88
2021/09/08 12:29:51;;;;;;;13.98;6.47;;;;;;;;;;5052021;28;20009;-88
2021/09/08 12:32:17;;;;;;;11.65;6.68;;;;;;;;;;5052098;28;20102;-88
2021/09/08 12:34:44;;;;;;;13.05;6.60;;;;;;;;;;5051959;28;20488;-88
2021/09/08 12:37:09;;;;;;;14.60;6.40;;;;;;;;;;5052143;28;20027;-88
2021/09/08 12:39:41;;;;;;;11.05;5.88;;;;;;;;;;5052084;28;20024;-88
2021/09/08 12:42:06;;;;;;;;;;;;;;;;;;5052034;28;20021;-88
2021/09/08 12:44:33;;;;;;;11.82;6.00;;;;;;;;;;5052898;28;19908;-88
2021/09/08 12:47:14;;;;;;;16.80;6.75;;;;;;;;;;5051781;28;20021;-88
2021/09/08 12:49:40;;;;;;;14.80;7.65;;;;;;;;;;5051873;28;20024;-88
2021/09/08 12:52:07;;;;;;;10.80;6.55;;;;;;;;;;5051102;28;20049;-88
2021/09/08 12:54:33;;;;;;;10.88;6.90;;;;;;;;;;5051796;28;20024;-88
2021/09/08 12:56:58;;;;;;;12.82;6.68;;;;;;;;;;5052887;28;20070;-88
2021/09/08 12:59:23;;;;;;;18.38;7.10;;;;;;;;;;5052805;28;20047;-88
2021/09/08 13:01:49;;;;;;;13.05;7.22;;;;;;;;;;5051818;28;20028;-88
2021/09/08 13:04:15;;;;;;;17.73;7.05;;;;;;;;;;5051606;28;20017;-88
2021/09/08 13:06:40;;;;;;;13.70;6.55;;;;;;;;;;5052905;28;20021;-88
2021/09/08 13:09:05;;;;;;;17.88;6.85;;;;;;;;;;5052647;28;20021;-88
2021/09/08 13:11:31;;;;;;;14.75;7.10;;;;;;;;;;5051223;28;20566;-88
2021/09/08 13:13:56;;;;;;;12.70;6.85;;;;;;;;;;5052899;28;20054;-88
2021/09/08 13:16:21;;;;;;;13.82;6.55;;;;;;;;;;5051494;28;20025;-88
2021/09/08 13:18:46;;;;;;;12.25;7.13;;;;;;;;;;5051579;28;20032;-88
2021/09/08 13:21:13;;;;;;;12.82;6.65;;;;;;;;;;5051533;28;20025;-88
2021/09/08 13:23:38;;;;;;;14.00;7.90;;;;;;;;;;5051676;28;20018;-88
2021/09/08 13:26:03;;;;;;;14.10;6.85;;;;;;;;;;5051543;28;20361;-88
2021/09/08 13:28:28;;;;;;;14.15;6.93;;;;;;;;;;5051508;28;20044;-88
2021/09/08 13:30:54;;;;;;;13.57;7.20;;;;;;;;;;5051534;28;20358;-88
2021/09/08 13:33:19;;;;;;;12.07;6.97;;;;;;;;;;5052750;28;20025;-88
2021/09/08 13:35:44;;;;;;;10.77;7.20;;;;;;;;;;5052685;28;20021;-89
2021/09/08 13:38:09;;;;;;;14.38;6.32;;;;;;;;;;5052599;28;20055;-88
2021/09/08 13:40:35;;;;;;;14.88;7.00;;;;;;;;;;5050761;28;20025;-89
2021/09/08 13:43:00;;;;;;;16.60;7.68;;;;;;;;;;5051529;28;20017;-88
2021/09/08 13:45:26;;;;;;;13.23;6.97;;;;;;;;;;5051307;28;20017;-88
2021/09/08 13:47:52;;;;;;;14.63;7.28;;;;;;;;;;5051314;28;20112;-88
2021/09/08 13:50:17;;;;;;;14.93;6.90;;;;;;;;;;5052668;28;20056;-88
2021/09/08 13:52:46;;;;;;;22.67;8.30;;;;;;;;;;5051346;28;20009;-88
2021/09/08 13:55:11;;;;;;;12.43;7.47;;;;;;;;;;5051084;28;20025;-88
2021/09/08 13:57:36;;;;;;;16.20;8.88;;;;;;;;;;5052176;28;20021;-88
2021/09/08 14:00:02;;;;;;;15.73;7.95;;;;;;;;;;5051223;28;20013;-88
2021/09/08 14:02:28;;;;;;;15.45;8.02;;;;;;;;;;5051659;28;20549;-88
2021/09/08 14:04:53;;;;;;;13.65;7.35;;;;;;;;;;5056214;28;20017;-88
2021/09/08 14:07:20;;;;;;;14.45;7.25;;;;;;;;;;5055013;28;20025;-88
2021/09/08 14:09:45;;;;;;;12.32;6.95;;;;;;;;;;5055408;28;20092;-88
2021/09/08 14:12:12;;;;;;;12.43;7.00;;;;;;;;;;5054924;28;20067;-88
2021/09/08 14:14:38;;;;;;;12.80;7.03;;;;;;;;;;5054354;28;20050;-88
2021/09/08 14:17:03;;;;;;;13.88;7.72;;;;;;;;;;5054570;28;20025;-88